createdAt,value
2024-03-05T00:00:11.956Z,74944.81
2024-03-05T00:02:42.930Z,74948.94
2024-03-05T00:05:14.160Z,74973.75
2024-03-05T00:07:41.800Z,74965.50
2024-03-05T00:10:08.850Z,74979.97
2024-03-05T00:12:35.952Z,74994.44
2024-03-05T00:15:03.091Z,74996.50
2024-03-05T00:17:29.782Z,75008.91
2024-03-05T00:19:56.495Z,75023.38
2024-03-05T00:22:23.375Z,75015.09
2024-03-05T00:24:50.002Z,75035.78
2024-03-05T00:27:16.660Z,75054.38
2024-03-05T00:29:43.365Z,75054.38
2024-03-05T00:32:10.100Z,75060.59
2024-03-05T00:34:36.776Z,75068.84
2024-03-05T00:37:03.461Z,75072.97
2024-03-05T00:39:30.102Z,75093.66
2024-03-05T00:41:56.752Z,75116.41
2024-03-05T00:44:23.442Z,75130.88
2024-03-05T00:46:50.187Z,75122.59
2024-03-05T00:49:16.961Z,75118.47
2024-03-05T00:51:43.602Z,75132.94
2024-03-05T00:54:12.127Z,75172.22
2024-03-05T00:56:38.720Z,75194.97
2024-03-05T00:59:05.540Z,75190.81
2024-03-05T01:01:32.359Z,75207.38
2024-03-05T01:03:59.477Z,75213.56
2024-03-05T01:06:26.118Z,75213.56
2024-03-05T01:08:52.825Z,75213.56
2024-03-05T01:11:19.504Z,75209.44
2024-03-05T01:13:46.207Z,75203.22
2024-03-05T01:16:12.937Z,75213.56
2024-03-05T01:18:39.586Z,75211.50
2024-03-05T01:21:08.771Z,75213.56
2024-03-05T01:23:35.516Z,75219.78
2024-03-05T01:26:02.182Z,75225.97
2024-03-05T01:28:32.324Z,75230.09
2024-03-05T01:31:00.786Z,75225.97
2024-03-05T01:33:27.642Z,75225.97
2024-03-05T01:35:54.382Z,75223.91
2024-03-05T01:38:22.897Z,75223.91
2024-03-05T01:40:49.500Z,75225.97
2024-03-05T01:43:16.491Z,75232.19
2024-03-05T01:45:46.436Z,75215.63
2024-03-05T01:48:15.693Z,75217.69
2024-03-05T01:50:44.221Z,75215.63
2024-03-05T01:53:12.125Z,75225.97
2024-03-05T01:55:40.286Z,75219.78
2024-03-05T01:58:09.079Z,75213.56
2024-03-05T02:00:37.992Z,75213.56
2024-03-05T02:03:06.267Z,75217.69
2024-03-05T02:05:34.101Z,75213.56
2024-03-05T02:08:01.661Z,75219.78
2024-03-05T02:10:28.608Z,75221.84
2024-03-05T02:12:56.057Z,75221.84
2024-03-05T02:15:22.882Z,75238.38
2024-03-05T02:17:49.802Z,75244.59
2024-03-05T02:20:16.577Z,75259.06
2024-03-05T02:22:44.129Z,75250.78
2024-03-05T02:25:11.353Z,75246.66
2024-03-05T02:27:38.570Z,75259.06
2024-03-05T02:30:14.285Z,75254.91
2024-03-05T02:32:43.006Z,75254.91
2024-03-05T02:35:10.589Z,75238.38
2024-03-05T02:37:40.790Z,75242.50
2024-03-05T02:40:12.094Z,75242.50
2024-03-05T02:42:38.886Z,75244.59
2024-03-05T02:45:08.896Z,75246.66
2024-03-05T02:47:42.514Z,75246.66
2024-03-05T02:50:12.807Z,75240.44
2024-03-05T02:52:40.282Z,75238.38
2024-03-05T02:55:11.075Z,75244.59
2024-03-05T02:57:42.740Z,75254.91
2024-03-05T03:00:11.574Z,75263.19
2024-03-05T03:02:39.083Z,75271.47
2024-03-05T03:05:06.992Z,75288.00
2024-03-05T03:07:34.238Z,75279.72
2024-03-05T03:10:00.940Z,75306.59
2024-03-05T03:12:27.676Z,75296.25
2024-03-05T03:14:55.443Z,75292.13
2024-03-05T03:17:22.079Z,75285.94
2024-03-05T03:19:48.917Z,75290.06
2024-03-05T03:22:15.605Z,75300.41
2024-03-05T03:24:43.227Z,75319.00
2024-03-05T03:27:10.176Z,75331.41
2024-03-05T03:29:36.765Z,75327.28
2024-03-05T03:32:05.507Z,75333.47
2024-03-05T03:34:32.222Z,75354.16
2024-03-05T03:36:59.166Z,75350.03
2024-03-05T03:39:26.152Z,75352.09
2024-03-05T03:41:56.369Z,75362.44
2024-03-05T03:44:23.999Z,75354.16
2024-03-05T03:46:53.670Z,75358.28
2024-03-05T03:49:25.727Z,75362.44
2024-03-05T03:51:55.601Z,75378.97
2024-03-05T03:54:26.115Z,75372.75
2024-03-05T03:56:53.245Z,75360.34
2024-03-05T03:59:21.472Z,75343.81
2024-03-05T04:01:49.479Z,75341.75
2024-03-05T04:04:16.233Z,75347.94
2024-03-05T04:06:43.661Z,75341.75
2024-03-05T04:09:10.483Z,75337.63
2024-03-05T04:11:40.274Z,75341.75
2024-03-05T04:14:07.036Z,75347.94
2024-03-05T04:16:33.964Z,75360.34
2024-03-05T04:19:00.769Z,75362.44
2024-03-05T04:21:27.716Z,75362.44
2024-03-05T04:23:54.410Z,75366.56
2024-03-05T04:26:28.434Z,75370.69
2024-03-05T04:29:01.914Z,75360.34
2024-03-05T04:31:44.246Z,75370.69
2024-03-05T04:34:14.570Z,75381.03
2024-03-05T04:36:41.207Z,75383.09
2024-03-05T04:39:07.962Z,75395.50
2024-03-05T04:41:34.644Z,75391.38
2024-03-05T04:44:01.766Z,75395.50
2024-03-05T04:46:29.487Z,75405.84
2024-03-05T04:48:56.202Z,75395.50
2024-03-05T04:51:22.784Z,75395.50
2024-03-05T04:53:49.414Z,75409.97
2024-03-05T04:56:16.062Z,75416.19
2024-03-05T04:58:42.691Z,75418.25
2024-03-05T05:01:09.516Z,75416.19
2024-03-05T05:03:36.192Z,75416.19
2024-03-05T05:06:02.874Z,75416.19
2024-03-05T05:08:29.845Z,75412.03
2024-03-05T05:10:56.792Z,75416.19
2024-03-05T05:13:23.895Z,75416.19
2024-03-05T05:15:50.563Z,75412.03
2024-03-05T05:18:17.290Z,75416.19
2024-03-05T05:20:44.372Z,75428.59
2024-03-05T05:23:11.044Z,75432.72
2024-03-05T05:25:38.694Z,75436.84
2024-03-05T05:28:06.641Z,75436.84
2024-03-05T05:30:33.919Z,75432.72
2024-03-05T05:33:00.717Z,75432.72
2024-03-05T05:35:27.393Z,75426.50
2024-03-05T05:37:54.234Z,75438.94
2024-03-05T05:40:21.964Z,75441.00
2024-03-05T05:42:50.296Z,75447.19
2024-03-05T05:45:17.178Z,75453.41
2024-03-05T05:47:52.841Z,75457.53
2024-03-05T05:50:24.191Z,75445.13
2024-03-05T05:52:55.960Z,75436.84
2024-03-05T05:55:26.754Z,75449.25
2024-03-05T05:57:55.172Z,75457.53
2024-03-05T06:00:47.023Z,75449.25
2024-03-05T06:03:13.766Z,75465.81
2024-03-05T06:05:43.788Z,75461.66
2024-03-05T06:08:13.578Z,75459.59
2024-03-05T06:10:43.277Z,75465.81
2024-03-05T06:13:10.606Z,75472.00
2024-03-05T06:15:39.814Z,75461.66
2024-03-05T06:18:07.459Z,75461.66
2024-03-05T06:20:34.354Z,75461.66
2024-03-05T06:23:02.351Z,75482.34
2024-03-05T06:25:29.278Z,75486.47
2024-03-05T06:27:56.068Z,75482.34
2024-03-05T06:30:24.218Z,75490.63
2024-03-05T06:32:53.081Z,75505.09
2024-03-05T06:35:23.906Z,75500.94
2024-03-05T06:37:51.712Z,75496.81
2024-03-05T06:40:20.842Z,75515.41
2024-03-05T06:43:05.519Z,75505.09
2024-03-05T06:45:35.572Z,75490.63
2024-03-05T06:50:38.401Z,75503.03
2024-03-05T06:53:24.559Z,75494.75
2024-03-05T06:56:10.600Z,75496.81
2024-03-05T06:58:43.079Z,75498.88
2024-03-05T07:01:09.892Z,75521.63
2024-03-05T07:03:40.201Z,75523.69
2024-03-05T07:06:08.509Z,75534.03
2024-03-05T07:08:36.438Z,75534.03
2024-03-05T07:11:06.955Z,75531.97
2024-03-05T07:13:35.138Z,75523.69
2024-03-05T07:16:04.328Z,75509.22
2024-03-05T07:18:30.988Z,75509.22
2024-03-05T07:20:58.018Z,75511.28
2024-03-05T07:23:24.638Z,75511.28
2024-03-05T07:25:51.330Z,75519.56
2024-03-05T07:28:18.059Z,75519.56
2024-03-05T07:30:44.734Z,75517.50
2024-03-05T07:33:11.550Z,75517.50
2024-03-05T07:35:38.265Z,75517.50
2024-03-05T07:38:05.313Z,75500.94
2024-03-05T07:40:32.098Z,75505.09
2024-03-05T07:43:00.012Z,75498.88
2024-03-05T07:45:26.602Z,75503.03
2024-03-05T07:47:53.306Z,75500.94
2024-03-05T07:50:20.042Z,75515.41
2024-03-05T07:52:48.241Z,75503.03
2024-03-05T07:55:25.741Z,75503.03
2024-03-05T07:57:57.722Z,75496.81
2024-03-05T08:00:25.750Z,75488.53
2024-03-05T08:02:56.175Z,75498.88
2024-03-05T08:05:24.315Z,75517.50
2024-03-05T08:07:57.708Z,75511.28
2024-03-05T08:10:25.513Z,75509.22
2024-03-05T08:12:56.937Z,75494.75
2024-03-05T08:15:27.855Z,75494.75
2024-03-05T08:17:57.368Z,75488.53
2024-03-05T08:20:27.031Z,75503.03
2024-03-05T08:22:55.962Z,75490.63
2024-03-05T08:25:23.922Z,75490.63
2024-03-05T08:27:53.989Z,75488.53
2024-03-05T08:30:25.317Z,75484.41
2024-03-05T08:32:53.761Z,75453.41
2024-03-05T08:35:21.418Z,75461.66
2024-03-05T08:37:49.895Z,75449.25
2024-03-05T08:40:18.618Z,75445.13
2024-03-05T08:42:47.045Z,75445.13
2024-03-05T08:45:21.052Z,75422.38
2024-03-05T08:47:49.468Z,75399.63
2024-03-05T08:50:16.995Z,75370.69
2024-03-05T08:52:43.786Z,75424.44
2024-03-05T08:55:11.776Z,75389.31
2024-03-05T08:57:39.113Z,75358.28
2024-03-05T09:00:16.542Z,75337.63
2024-03-05T09:02:53.884Z,75339.69
2024-03-05T09:05:21.169Z,75331.41
2024-03-05T09:07:48.009Z,75341.75
2024-03-05T09:10:18.966Z,75335.53
2024-03-05T09:12:45.709Z,75341.75
2024-03-05T09:15:13.498Z,75329.34
2024-03-05T09:17:40.236Z,75343.81
2024-03-05T09:20:16.681Z,75354.16
2024-03-05T09:22:46.172Z,75337.63
2024-03-05T09:25:17.341Z,75345.88
2024-03-05T09:27:46.414Z,75366.56
2024-03-05T09:30:16.618Z,75343.81
2024-03-05T09:32:45.216Z,75354.16
2024-03-05T09:35:14.357Z,75329.34
2024-03-05T09:37:42.785Z,75329.34
2024-03-05T09:40:19.017Z,75337.63
2024-03-05T09:42:46.560Z,75360.34
2024-03-05T09:45:18.835Z,75383.09
2024-03-05T09:47:48.469Z,75397.56
2024-03-05T09:50:18.136Z,75403.78
2024-03-05T09:52:48.095Z,75420.31
2024-03-05T09:55:16.648Z,75424.44
2024-03-05T09:57:48.489Z,75449.25
2024-03-05T10:00:19.812Z,75436.84
2024-03-05T10:02:54.496Z,75449.25
2024-03-05T10:05:21.651Z,75490.63
2024-03-05T10:07:49.421Z,75496.81
2024-03-05T10:10:20.736Z,75511.28
2024-03-05T10:12:47.802Z,75536.09
2024-03-05T10:15:18.771Z,75536.09
2024-03-05T10:17:46.847Z,75546.44
2024-03-05T10:20:33.671Z,75552.63
2024-03-05T10:23:04.580Z,75546.44
2024-03-05T10:25:34.443Z,75534.03
2024-03-05T10:28:04.952Z,75519.56
2024-03-05T10:30:34.763Z,75515.41
2024-03-05T10:33:04.197Z,75496.81
2024-03-05T10:35:33.144Z,75511.28
2024-03-05T10:38:07.267Z,75511.28
2024-03-05T10:40:36.071Z,75511.28
2024-03-05T10:43:05.516Z,75515.41
2024-03-05T10:45:38.840Z,75517.50
2024-03-05T10:48:08.643Z,75490.63
2024-03-05T10:50:40.902Z,75469.94
2024-03-05T10:53:11.094Z,75457.53
2024-03-05T10:55:39.403Z,75461.66
2024-03-05T10:58:13.694Z,75443.06
2024-03-05T11:00:42.714Z,75420.31
2024-03-05T11:03:11.045Z,75397.56
2024-03-05T11:05:54.893Z,75420.31
2024-03-05T11:08:28.769Z,75372.75
2024-03-05T11:11:09.944Z,75337.63
2024-03-05T11:13:38.077Z,75345.88
2024-03-05T11:16:05.765Z,75362.44
2024-03-05T11:18:36.391Z,75347.94
2024-03-05T11:21:07.760Z,75345.88
2024-03-05T11:23:39.368Z,75337.63
2024-03-05T11:26:08.228Z,75356.22
2024-03-05T11:28:37.265Z,75356.22
2024-03-05T11:31:11.333Z,75329.34
2024-03-05T11:33:41.648Z,75354.16
2024-03-05T11:36:23.463Z,75364.50
2024-03-05T11:39:16.575Z,75325.22
2024-03-05T11:41:44.749Z,75366.56
2024-03-05T11:44:42.801Z,75362.44
2024-03-05T11:47:09.769Z,75354.16
2024-03-05T11:49:37.655Z,75345.88
2024-03-05T11:52:05.086Z,75339.69
2024-03-05T11:54:33.605Z,75333.47
2024-03-05T11:57:01.560Z,75285.94
2024-03-05T11:59:35.660Z,75259.06
2024-03-05T12:02:02.873Z,75234.25
2024-03-05T12:04:31.014Z,75234.25
2024-03-05T12:07:08.386Z,75304.53
2024-03-05T12:09:43.351Z,75298.34
2024-03-05T12:12:15.489Z,75319.00
2024-03-05T12:14:51.446Z,75316.94
2024-03-05T12:17:20.033Z,75325.22
2024-03-05T12:19:56.133Z,75354.16
2024-03-05T12:22:24.227Z,75312.81
2024-03-05T12:24:51.220Z,75259.06
2024-03-05T12:27:18.345Z,75254.91
2024-03-05T12:29:45.512Z,75302.47
2024-03-05T12:32:13.826Z,75306.59
2024-03-05T12:34:44.961Z,75288.00
2024-03-05T12:37:12.470Z,75308.66
2024-03-05T12:39:41.576Z,75288.00
2024-03-05T12:42:14.875Z,75283.84
2024-03-05T12:44:41.922Z,75261.13
2024-03-05T12:47:15.225Z,75259.06
2024-03-05T12:49:49.859Z,75319.00
2024-03-05T12:52:21.758Z,75325.22
2024-03-05T12:55:01.764Z,75321.06
2024-03-05T12:57:30.818Z,75323.16
2024-03-05T13:00:01.891Z,75343.81
2024-03-05T13:02:29.546Z,75360.34
2024-03-05T13:04:59.014Z,75366.56
2024-03-05T13:07:26.836Z,75358.28
2024-03-05T13:09:55.449Z,75356.22
2024-03-05T13:12:22.158Z,75372.75
2024-03-05T13:14:48.792Z,75354.16
2024-03-05T13:17:15.572Z,75391.38
2024-03-05T13:19:42.453Z,75383.09
2024-03-05T13:22:09.813Z,75389.31
2024-03-05T13:24:36.953Z,75393.44
2024-03-05T13:27:04.932Z,75372.75
2024-03-05T13:29:31.653Z,75358.28
2024-03-05T13:32:00.473Z,75362.44
2024-03-05T13:34:28.585Z,75362.44
2024-03-05T13:36:55.729Z,75352.09
2024-03-05T13:39:25.701Z,75339.69
2024-03-05T13:41:55.976Z,75341.75
2024-03-05T13:44:24.017Z,75358.28
2024-03-05T13:46:52.150Z,75389.31
2024-03-05T13:49:21.311Z,75395.50
2024-03-05T13:51:48.302Z,75383.09
2024-03-05T13:54:15.151Z,75383.09
2024-03-05T13:56:44.395Z,75378.97
2024-03-05T13:59:12.293Z,75387.22
2024-03-05T14:01:40.398Z,75391.38
2024-03-05T14:04:11.219Z,75387.22
2024-03-05T14:06:42.379Z,75407.91
2024-03-05T14:09:12.454Z,75412.03
2024-03-05T14:11:42.283Z,75416.19
2024-03-05T14:14:09.791Z,75428.59
2024-03-05T14:16:38.820Z,75405.84
2024-03-05T14:19:05.532Z,75389.31
2024-03-05T14:21:32.198Z,75364.50
2024-03-05T14:23:59.400Z,75354.16
2024-03-05T14:26:26.277Z,75360.34
2024-03-05T14:28:53.162Z,75374.84
2024-03-05T14:31:20.664Z,75381.03
2024-03-05T14:33:48.558Z,75399.63
2024-03-05T14:36:15.739Z,75407.91
2024-03-05T14:38:44.076Z,75414.13
2024-03-05T14:41:11.384Z,75395.50
2024-03-05T14:43:38.695Z,75395.50
2024-03-05T14:46:06.698Z,75407.91
2024-03-05T14:48:34.505Z,75422.38
2024-03-05T14:51:02.009Z,75443.06
2024-03-05T14:53:28.880Z,75443.06
2024-03-05T14:55:55.885Z,75443.06
2024-03-05T14:58:22.919Z,75432.72
2024-03-05T15:00:49.638Z,75434.78
2024-03-05T15:03:19.301Z,75441.00
2024-03-05T15:05:46.727Z,75467.88
2024-03-05T15:08:14.152Z,75461.66
2024-03-05T15:10:41.130Z,75453.41
2024-03-05T15:13:09.274Z,75461.66
2024-03-05T15:15:35.967Z,75467.88
2024-03-05T15:18:02.651Z,75480.28
2024-03-05T15:20:29.926Z,75478.22
2024-03-05T15:22:56.798Z,75503.03
2024-03-05T15:25:24.483Z,75498.88
2024-03-05T15:30:21.287Z,75511.28
2024-03-05T15:32:51.638Z,75507.16
2024-03-05T15:35:20.918Z,75507.16
2024-03-05T15:37:48.838Z,75519.56
2024-03-05T15:40:22.245Z,75519.56
2024-03-05T15:42:57.300Z,75527.81
2024-03-05T15:45:26.372Z,75531.97
2024-03-05T15:47:55.944Z,75538.16
2024-03-05T15:50:24.321Z,75554.72
2024-03-05T15:52:53.719Z,75560.91
2024-03-05T15:55:25.168Z,75548.50
2024-03-05T15:58:02.421Z,75548.50
2024-03-05T16:00:31.813Z,75560.91
2024-03-05T16:03:17.582Z,75554.72
2024-03-05T16:05:55.573Z,75560.91
2024-03-05T16:08:33.419Z,75565.03
2024-03-05T16:11:00.532Z,75587.78
2024-03-05T16:13:31.270Z,75591.94
2024-03-05T16:15:58.399Z,75589.84
2024-03-05T16:18:25.739Z,75587.78
2024-03-05T16:20:53.878Z,75594.00
2024-03-05T16:23:20.813Z,75594.00
2024-03-05T16:25:47.848Z,75606.41
2024-03-05T16:28:15.226Z,75618.81
2024-03-05T16:30:42.428Z,75625.00
2024-03-05T16:33:09.377Z,75631.22
2024-03-05T16:35:38.797Z,75625.00
2024-03-05T16:38:06.925Z,75627.06
2024-03-05T16:40:38.830Z,75618.81
2024-03-05T16:43:07.509Z,75622.94
2024-03-05T16:45:35.671Z,75618.81
2024-03-05T16:48:10.270Z,75620.88
2024-03-05T16:50:37.916Z,75616.72
2024-03-05T16:53:07.320Z,75622.94
2024-03-05T16:55:34.431Z,75622.94
2024-03-05T16:58:02.579Z,75631.22
2024-03-05T17:00:42.350Z,75633.28
2024-03-05T17:03:12.701Z,75631.22
2024-03-05T17:05:41.948Z,75635.34
2024-03-05T17:08:15.978Z,75639.47
2024-03-05T17:10:45.275Z,75639.47
2024-03-05T17:13:19.675Z,75643.63
2024-03-05T17:15:52.515Z,75639.47
2024-03-05T17:18:20.607Z,75647.75
2024-03-05T17:20:48.091Z,75647.75
2024-03-05T17:23:22.245Z,75645.69
2024-03-05T17:25:52.830Z,75656.03
2024-03-05T17:28:20.046Z,75651.88
2024-03-05T17:30:47.428Z,75660.16
2024-03-05T17:33:15.834Z,75651.88
2024-03-05T17:35:42.972Z,75660.16
2024-03-05T17:38:11.656Z,75670.50
2024-03-05T17:40:39.350Z,75672.56
2024-03-05T17:43:06.088Z,75684.97
2024-03-05T17:45:33.179Z,75689.09
2024-03-05T17:48:06.838Z,75701.50
2024-03-05T17:50:35.868Z,75709.78
2024-03-05T17:53:06.403Z,75718.06
2024-03-05T17:55:33.769Z,75736.66
2024-03-05T17:58:00.664Z,75747.00
2024-03-05T18:00:27.344Z,75767.69
2024-03-05T18:02:56.346Z,75767.69
2024-03-05T18:05:27.982Z,75767.69
2024-03-05T18:07:55.729Z,75780.09
2024-03-05T18:10:24.827Z,75792.50
2024-03-05T18:12:52.328Z,75809.03
2024-03-05T18:15:23.755Z,75819.38
2024-03-05T18:17:52.839Z,75827.63
2024-03-05T18:20:21.102Z,75835.91
2024-03-05T18:22:48.748Z,75844.19
2024-03-05T18:25:17.960Z,75846.25
2024-03-05T18:27:49.152Z,75862.78
2024-03-05T18:30:36.792Z,75879.34
2024-03-05T18:33:08.391Z,75908.28
2024-03-05T18:35:36.222Z,75928.97
2024-03-05T18:38:16.458Z,75937.22
2024-03-05T18:40:51.309Z,75953.78
2024-03-05T18:43:20.519Z,75957.91
2024-03-05T18:45:47.154Z,75978.59
2024-03-05T18:48:14.526Z,75980.66
2024-03-05T18:50:41.443Z,75984.78
2024-03-05T18:53:08.999Z,75993.06
2024-03-05T18:55:37.689Z,75991.00
2024-03-05T18:58:07.728Z,75982.72
2024-03-05T19:00:35.361Z,75982.72
2024-03-05T19:03:02.251Z,75978.59
2024-03-05T19:05:29.024Z,75972.38
2024-03-05T19:07:55.757Z,75964.13
2024-03-05T19:10:22.487Z,75957.91
2024-03-05T19:12:49.487Z,75949.63
2024-03-05T19:15:18.778Z,75949.63
2024-03-05T19:17:48.978Z,75943.44
2024-03-05T19:20:16.539Z,75941.38
2024-03-05T19:22:43.455Z,75947.56
2024-03-05T19:25:12.592Z,75941.38
2024-03-05T19:27:43.279Z,75941.38
2024-03-05T19:30:12.622Z,75941.38
2024-03-05T19:32:43.571Z,75937.22
2024-03-05T19:35:12.484Z,75939.28
2024-03-05T19:37:44.057Z,75931.03
2024-03-05T19:40:17.502Z,75928.97
2024-03-05T19:42:46.154Z,75920.69
2024-03-05T19:45:13.580Z,75920.69
2024-03-05T19:47:40.684Z,75916.56
2024-03-05T19:50:08.271Z,75920.69
2024-03-05T19:52:38.091Z,75924.81
2024-03-05T19:55:05.138Z,75928.97
2024-03-05T19:57:31.869Z,75926.88
2024-03-05T20:00:01.357Z,75933.09
2024-03-05T20:02:29.522Z,75943.44
2024-03-05T20:04:56.776Z,75953.78
2024-03-05T20:07:23.488Z,75955.84
2024-03-05T20:09:50.117Z,75964.13
2024-03-05T20:12:16.857Z,75968.25
2024-03-05T20:14:43.614Z,75980.66
2024-03-05T20:17:10.377Z,75997.19
2024-03-05T20:19:39.226Z,76017.88
2024-03-05T20:22:06.095Z,76040.63
2024-03-05T20:24:36.235Z,76048.88
2024-03-05T20:27:03.751Z,76061.31
2024-03-05T20:29:31.222Z,76065.44
2024-03-05T20:31:58.632Z,76075.78
2024-03-05T20:34:26.903Z,76073.72
2024-03-05T20:36:53.639Z,76098.53
2024-03-05T20:39:20.324Z,76106.78
2024-03-05T20:41:47.464Z,76113.00
2024-03-05T20:44:18.069Z,76119.19
2024-03-05T20:46:44.839Z,76131.59
2024-03-05T20:49:11.592Z,76144.00
2024-03-05T20:51:38.733Z,76160.56
2024-03-05T20:54:05.646Z,76168.81
2024-03-05T20:56:33.165Z,76177.09
2024-03-05T20:58:59.851Z,76185.38
2024-03-05T21:01:26.602Z,76195.72
2024-03-05T21:03:54.187Z,76193.66
2024-03-05T21:06:20.822Z,76197.78
2024-03-05T21:08:48.438Z,76199.84
2024-03-05T21:11:16.376Z,76218.47
2024-03-05T21:13:43.438Z,76216.41
2024-03-05T21:16:10.713Z,76220.53
2024-03-05T21:18:40.552Z,76239.13
2024-03-05T21:21:08.019Z,76247.41
2024-03-05T21:23:35.391Z,76257.75
2024-03-05T21:26:13.999Z,76263.97
2024-03-05T21:28:51.876Z,76270.16
2024-03-05T21:31:19.113Z,76280.50
2024-03-05T21:33:45.897Z,76286.69
2024-03-05T21:36:12.661Z,76292.91
2024-03-05T21:38:39.399Z,76292.91
2024-03-05T21:41:09.999Z,76305.31
2024-03-05T21:43:36.954Z,76305.31
2024-03-05T21:46:05.351Z,76309.44
2024-03-05T21:48:32.966Z,76319.78
2024-03-05T21:51:06.499Z,76328.06
2024-03-05T21:53:38.825Z,76334.25
2024-03-05T21:56:05.692Z,76346.69
2024-03-05T21:58:33.232Z,76361.16
2024-03-05T22:00:59.965Z,76361.16
2024-03-05T22:03:26.694Z,76363.22
2024-03-05T22:05:54.616Z,76367.34
2024-03-05T22:08:21.423Z,76367.34
2024-03-05T22:10:48.100Z,76379.75
2024-03-05T22:13:14.723Z,76375.63
2024-03-05T22:15:41.430Z,76381.84
2024-03-05T22:18:08.442Z,76379.75
2024-03-05T22:20:35.383Z,76379.75
2024-03-05T22:23:03.149Z,76377.69
2024-03-05T22:25:29.826Z,76381.84
2024-03-05T22:27:56.498Z,76383.91
2024-03-05T22:30:23.233Z,76381.84
2024-03-05T22:32:50.201Z,76404.56
2024-03-05T22:35:17.029Z,76408.72
2024-03-05T22:37:43.808Z,76423.19
2024-03-05T22:40:13.537Z,76419.06
2024-03-05T22:42:40.628Z,76427.31
2024-03-05T22:45:10.383Z,76429.41
2024-03-05T22:47:37.373Z,76439.75
2024-03-05T22:50:04.628Z,76450.06
2024-03-05T22:52:31.350Z,76462.47
2024-03-05T22:54:57.961Z,76466.63
2024-03-05T22:57:25.697Z,76466.63
2024-03-05T22:59:52.424Z,76470.75
2024-03-05T23:02:19.733Z,76481.09
2024-03-05T23:04:47.546Z,76479.03
2024-03-05T23:07:14.459Z,76483.16
2024-03-05T23:09:41.742Z,76483.16
2024-03-05T23:12:15.611Z,76495.56
2024-03-05T23:14:43.306Z,76497.63
2024-03-05T23:17:13.427Z,76495.56
2024-03-05T23:19:42.485Z,76487.31
2024-03-05T23:22:09.382Z,76503.84
2024-03-05T23:24:36.277Z,76487.31
2024-03-05T23:27:03.512Z,76495.56
2024-03-05T23:29:30.311Z,76499.72
2024-03-05T23:31:56.975Z,76507.97
2024-03-05T23:34:23.620Z,76510.06
2024-03-05T23:36:50.213Z,76505.91
2024-03-05T23:39:16.835Z,76501.78
2024-03-05T23:41:45.348Z,76503.84
2024-03-05T23:44:13.568Z,76497.63
2024-03-05T23:46:40.482Z,76491.44
2024-03-05T23:49:07.133Z,76489.38
2024-03-05T23:51:33.744Z,76489.38
2024-03-05T23:54:00.342Z,76503.84
2024-03-05T23:56:26.992Z,76499.72
2024-03-05T23:58:53.694Z,76510.06
